Time;durP1;ratioP1;P1;durP2;ratioP2;P2;SDS_P1;SDS_P2;PMS_P1;PMS_P2;Temp;Humidity;BMP_temperature;BMP_pressure;BME280_temperature;BME280_humidity;BME280_pressure;Samples;Min_cycle;Max_cycle;Signal;HPM_P1;HPM_P2
2021/03/12 00:02:24;;;;;;;14.23;2.90;;;;;;;8.59;65.12;100809.94;5094745;28;20060;-64
2021/03/12 00:04:51;;;;;;;14.27;1.88;;;;;;;8.54;65.43;100812.78;5094624;28;20490;-68
2021/03/12 00:12:18;;;;;;;12.35;1.98;;;;;;;8.56;65.48;100819.59;5094975;28;20047;-67
2021/03/12 00:14:47;;;;;;;14.35;2.40;;;;;;;8.59;64.86;100829.16;5094665;28;20052;-66
2021/03/12 00:17:22;;;;;;;9.80;1.80;;;;;;;8.68;64.75;100830.13;5062471;28;20055;-68
2021/03/12 00:19:53;;;;;;;11.27;2.10;;;;;;;8.56;65.08;100824.28;5077186;28;20056;-64
2021/03/12 00:22:20;;;;;;;14.05;2.65;;;;;;;8.63;65.00;100825.53;5094290;28;20051;-66
2021/03/12 00:24:47;;;;;;;9.50;2.03;;;;;;;8.41;65.67;100830.78;5076548;28;20055;-65
2021/03/12 00:27:29;;;;;;;13.13;2.13;;;;;;;8.53;65.81;100841.31;5092837;28;20048;-67
2021/03/12 00:29:57;;;;;;;13.57;2.45;;;;;;;8.61;65.61;100826.94;5076588;28;20059;-67
2021/03/12 00:32:24;;;;;;;12.50;2.22;;;;;;;8.53;65.32;100833.09;5076269;28;20136;-67
2021/03/12 00:34:51;;;;;;;17.45;3.10;;;;;;;8.50;65.09;100831.78;5074476;28;20060;-69
2021/03/12 00:37:38;;;;;;;17.15;2.72;;;;;;;8.64;64.84;100821.69;5079113;28;20051;-66
2021/03/12 00:40:13;;;;;;;13.93;2.10;;;;;;;8.38;65.38;100841.56;5061066;28;20109;-68
2021/03/12 00:42:41;;;;;;;12.18;2.53;;;;;;;8.33;65.60;100836.13;5094688;28;20052;-65
2021/03/12 00:45:11;;;;;;;16.13;2.38;;;;;;;8.40;65.23;100845.66;5074605;28;20052;-67
2021/03/12 00:47:39;;;;;;;15.90;3.25;;;;;;;8.42;65.53;100846.13;5065835;28;20055;-69
2021/03/12 00:50:22;;;;;;;14.18;2.63;;;;;;;8.30;65.71;100845.75;5106885;28;20505;-69
2021/03/12 00:52:52;;;;;;;20.30;2.58;;;;;;;8.37;65.82;100842.69;5076338;28;20052;-65
2021/03/12 00:55:19;;;;;;;13.80;2.10;;;;;;;8.21;66.13;100850.22;5075744;28;20048;-67
2021/03/12 00:57:50;;;;;;;14.18;2.55;;;;;;;8.13;66.66;100853.66;5076076;28;20052;-67
2021/03/12 01:00:28;;;;;;;11.70;2.42;;;;;;;8.01;66.69;100858.75;5076413;28;20055;-68
2021/03/12 01:03:05;;;;;;;13.80;2.50;;;;;;;8.21;67.21;100857.66;5076587;28;20062;-68
2021/03/12 01:05:32;;;;;;;14.60;2.55;;;;;;;8.56;65.68;100858.00;5076014;28;20055;-67
2021/03/12 01:08:02;;;;;;;20.67;2.67;;;;;;;8.50;65.90;100867.44;5076197;28;20052;-68
2021/03/12 01:10:36;;;;;;;13.40;2.42;;;;;;;8.24;66.83;100866.16;5075427;28;20055;-68
2021/03/12 01:13:03;;;;;;;15.63;2.28;;;;;;;8.22;66.52;100857.38;5072889;28;20044;-68
2021/03/12 01:15:31;;;;;;;12.18;2.22;;;;;;;8.08;67.21;100859.19;5075347;28;20494;-67
2021/03/12 01:18:05;;;;;;;13.68;2.20;;;;;;;8.06;67.65;100866.91;5075949;28;20047;-66
2021/03/12 01:20:37;;;;;;;11.55;2.03;;;;;;;8.07;67.63;100864.97;5075636;28;20396;-66
2021/03/12 01:23:08;;;;;;;10.57;2.15;;;;;;;8.12;68.04;100873.16;5075528;28;20052;-68
2021/03/12 01:30:01;;;;;;;13.40;2.05;;;;;;;8.02;68.17;100876.03;5091484;28;20052;-67
2021/03/12 01:32:40;;;;;;;13.23;2.55;;;;;;;8.10;68.10;100873.44;5077711;28;20514;-66
2021/03/12 01:35:08;;;;;;;17.17;2.35;;;;;;;8.00;68.09;100873.56;5093327;28;20561;-66
2021/03/12 01:37:38;;;;;;;14.35;2.65;;;;;;;8.00;67.80;100877.13;5108606;28;20136;-68
2021/03/12 01:40:08;;;;;;;;;;;;;;;7.98;68.15;100871.09;5093003;28;20048;-66
2021/03/12 01:42:55;;;;;;;12.82;2.15;;;;;;;8.04;67.82;100868.31;5075102;28;19927;-68
2021/03/12 01:45:25;;;;;;;;;;;;;;;7.93;68.00;100868.41;5058899;28;20051;-67
2021/03/12 01:47:53;;;;;;;17.25;2.95;;;;;;;7.99;68.12;100878.22;5075150;28;19920;-67
2021/03/12 01:50:27;;;;;;;18.02;3.38;;;;;;;7.93;67.80;100875.84;5058923;28;20051;-67
2021/03/12 01:52:54;;;;;;;18.35;2.70;;;;;;;7.88;68.01;100876.72;5057792;28;20075;-67
2021/03/12 01:55:49;;;;;;;14.85;2.50;;;;;;;8.11;67.58;100879.75;5076021;28;20048;-68
2021/03/12 01:58:19;;;;;;;13.63;2.30;;;;;;;8.12;67.13;100875.88;5058869;28;20390;-68
2021/03/12 02:00:50;;;;;;;17.65;2.72;;;;;;;8.03;67.48;100872.97;5058752;28;20051;-68
2021/03/12 02:03:43;;;;;;;13.57;2.42;;;;;;;7.87;67.83;100869.59;5063082;28;20371;-68
2021/03/12 02:06:22;;;;;;;16.13;3.07;;;;;;;7.92;67.69;100869.53;5073943;28;20044;-67
2021/03/12 02:08:55;;;;;;;18.30;3.38;;;;;;;7.97;68.11;100871.41;5091804;28;20048;-67
2021/03/12 02:11:46;;;;;;;18.08;2.58;;;;;;;8.24;66.25;100866.16;4977056;28;20058;-66
2021/03/12 02:14:22;;;;;;;16.38;2.35;;;;;;;8.16;66.72;100868.72;4974388;28;20047;-67
2021/03/12 02:16:57;;;;;;;14.98;2.63;;;;;;;7.90;67.54;100857.22;4974013;28;20502;-66
2021/03/12 02:19:51;;;;;;;20.42;3.33;;;;;;;7.96;67.55;100847.84;4973517;28;20170;-68
2021/03/12 02:22:19;;;;;;;17.27;2.45;;;;;;;7.72;67.94;100855.25;4957933;28;20536;-67
2021/03/12 02:28:49;;;;;;;14.82;2.47;;;;;;;7.80;67.86;100854.59;4972210;28;20054;-69
2021/03/12 02:31:21;;;;;;;12.73;2.80;;;;;;;7.71;68.47;100851.69;4973193;28;20517;-67
2021/03/12 02:33:58;;;;;;;22.27;2.90;;;;;;;7.79;68.10;100844.75;4960000;28;20054;-67
2021/03/12 02:36:29;;;;;;;21.92;2.92;;;;;;;7.75;67.92;100855.47;4992690;28;20062;-67
2021/03/12 02:39:05;;;;;;;19.02;2.88;;;;;;;7.93;67.82;100856.66;4994795;28;20064;-66
2021/03/12 02:41:33;;;;;;;17.58;3.05;;;;;;;7.83;67.27;100851.25;4993704;28;20053;-66
2021/03/12 02:44:02;;;;;;;20.65;3.72;;;;;;;7.77;67.86;100849.72;4977940;28;20050;-67
2021/03/12 02:46:58;;;;;;;21.42;3.08;;;;;;;7.56;68.73;100860.09;4991863;28;20046;-68
2021/03/12 02:49:26;;;;;;;16.55;2.53;;;;;;;7.56;68.75;100848.28;5050575;28;20063;-67
2021/03/12 02:51:57;;;;;;;19.65;2.92;;;;;;;7.55;68.38;100852.16;5073789;28;20119;-66
2021/03/12 02:54:27;;;;;;;22.02;2.92;;;;;;;7.46;69.59;100857.41;5074741;28;20103;-66
2021/03/12 02:57:00;;;;;;;18.17;3.40;;;;;;;7.41;69.22;100849.25;5074469;28;20055;-67
2021/03/12 02:59:31;;;;;;;18.65;3.53;;;;;;;7.54;68.79;100842.28;5058377;28;20055;-68
2021/03/12 03:02:18;;;;;;;12.85;2.70;;;;;;;7.72;68.22;100841.53;5092071;28;20043;-67
2021/03/12 03:05:24;;;;;;;22.45;2.85;;;;;;;7.59;68.38;100848.53;5072639;28;20074;-68
2021/03/12 03:07:57;;;;;;;16.48;2.88;;;;;;;7.83;67.84;100835.63;5091239;28;20128;-68
2021/03/12 03:10:28;;;;;;;19.25;2.95;;;;;;;7.58;68.38;100824.94;5074637;28;20044;-67
2021/03/12 03:12:58;;;;;;;22.02;3.05;;;;;;;7.44;69.08;100829.50;5071862;28;20055;-66
2021/03/12 03:15:28;;;;;;;23.65;4.00;;;;;;;7.52;68.60;100833.53;5042397;28;20052;-67
2021/03/12 03:17:55;;;;;;;24.83;2.92;;;;;;;7.61;68.49;100824.38;5056997;28;20455;-68
2021/03/12 03:20:28;;;;;;;18.58;3.58;;;;;;;7.64;68.26;100820.22;5057961;28;20044;-66
2021/03/12 03:23:00;;;;;;;25.73;3.28;;;;;;;7.56;68.31;100812.66;5058434;28;20044;-67
2021/03/12 03:25:30;;;;;;;20.05;2.83;;;;;;;7.50;68.83;100819.28;5058258;28;20051;-67
2021/03/12 03:27:57;;;;;;;23.38;2.78;;;;;;;7.54;68.97;100823.09;5056179;28;20398;-68
2021/03/12 03:30:26;;;;;;;19.77;3.03;;;;;;;7.67;68.28;100814.19;5073761;28;20044;-65
2021/03/12 03:33:22;;;;;;;13.93;2.78;;;;;;;7.40;69.08;100822.97;5068427;28;20052;-68
2021/03/12 03:35:52;;;;;;;23.52;3.95;;;;;;;7.21;69.55;100813.84;5073666;28;20056;-65
2021/03/12 03:38:26;;;;;;;16.90;2.90;;;;;;;7.24;70.02;100817.91;5074293;28;20048;-66
2021/03/12 03:41:04;;;;;;;19.23;2.88;;;;;;;7.36;69.85;100821.91;5074505;28;20056;-66
2021/03/12 03:43:39;;;;;;;20.27;3.33;;;;;;;7.47;69.36;100826.19;5056053;28;20052;-67
2021/03/12 03:46:11;;;;;;;19.75;3.17;;;;;;;7.34;69.59;100831.53;5073907;28;20394;-67
2021/03/12 03:48:45;;;;;;;22.15;3.58;;;;;;;7.45;69.22;100822.09;5056443;28;20055;-65
2021/03/12 03:51:18;;;;;;;20.75;4.03;;;;;;;7.57;68.78;100827.97;5073829;28;20406;-68
2021/03/12 03:53:56;;;;;;;20.35;3.08;;;;;;;7.49;69.20;100834.13;5075094;28;20059;-68
2021/03/12 04:01:05;;;;;;;19.05;3.47;;;;;;;7.25;69.96;100834.09;5091444;28;20044;-68
2021/03/12 04:03:36;;;;;;;22.60;3.30;;;;;;;7.30;69.38;100830.47;5057221;28;20063;-67
2021/03/12 04:06:10;;;;;;;21.98;3.50;;;;;;;7.39;69.44;100839.69;5073664;28;20058;-67
2021/03/12 04:08:39;;;;;;;;;;;;;;;7.40;69.75;100827.63;5077102;28;20062;-66
2021/03/12 04:11:12;;;;;;;23.02;4.18;;;;;;;7.42;69.50;100834.47;5078072;28;19920;-67
2021/03/12 04:18:19;;;;;;;22.80;3.75;;;;;;;7.28;70.05;100829.94;5094595;28;20109;-70
2021/03/12 04:20:48;;;;;;;22.48;3.38;;;;;;;7.38;69.19;100824.34;5076272;28;20499;-68
2021/03/12 04:23:16;;;;;;;22.50;3.17;;;;;;;7.42;69.62;100828.97;5060365;28;20387;-67
2021/03/12 04:25:47;;;;;;;23.30;3.78;;;;;;;7.54;69.47;100821.19;5077209;28;20059;-67
2021/03/12 04:28:15;;;;;;;22.25;3.67;;;;;;;7.42;69.34;100826.25;5076539;28;20048;-65
2021/03/12 04:30:42;;;;;;;20.92;3.05;;;;;;;7.44;69.87;100815.00;5076819;28;20052;-67
2021/03/12 04:33:10;;;;;;;24.30;4.38;;;;;;;7.49;69.61;100828.63;5077109;28;20048;-68
2021/03/12 04:35:48;;;;;;;28.55;4.32;;;;;;;7.46;69.64;100821.00;5062293;28;20059;-68
2021/03/12 04:38:17;;;;;;;25.92;3.97;;;;;;;7.61;68.88;100818.91;5059566;28;20437;-66
2021/03/12 04:40:46;;;;;;;23.05;3.47;;;;;;;7.50;69.17;100822.03;5093945;28;20433;-66
2021/03/12 04:43:13;;;;;;;22.95;4.07;;;;;;;7.35;69.85;100828.50;5059703;28;20502;-66
2021/03/12 04:45:41;;;;;;;26.50;4.65;;;;;;;7.14;70.94;100827.06;5059833;28;20044;-67
2021/03/12 04:48:10;;;;;;;31.25;4.63;;;;;;;7.25;70.44;100834.09;5059152;28;20040;-66
2021/03/12 04:50:37;;;;;;;27.02;4.25;;;;;;;7.24;70.39;100823.41;5076632;28;20048;-68
2021/03/12 04:53:06;;;;;;;27.48;4.40;;;;;;;7.24;70.77;100821.47;5075487;28;20063;-66
2021/03/12 04:56:00;;;;;;;32.85;4.43;;;;;;;7.26;70.88;100829.41;5078563;28;20459;-66
2021/03/12 04:58:39;;;;;;;28.02;5.32;;;;;;;7.09;71.01;100829.03;5060572;28;20051;-68
2021/03/12 05:01:08;;;;;;;24.75;4.13;;;;;;;7.25;70.95;100830.53;5075766;28;20052;-67
2021/03/12 05:03:37;;;;;;;21.45;3.67;;;;;;;7.32;70.43;100828.25;5059788;28;20072;-65
2021/03/12 05:06:08;;;;;;;31.05;4.32;;;;;;;7.11;70.86;100829.56;5076432;28;20044;-68
2021/03/12 05:08:43;;;;;;;35.80;4.60;;;;;;;7.25;70.57;100830.53;5076505;28;20059;-65
2021/03/12 05:11:19;;;;;;;29.08;5.78;;;;;;;7.24;70.67;100831.63;5075414;28;20055;-67
2021/03/12 05:13:59;;;;;;;29.50;5.30;;;;;;;7.16;70.92;100833.06;5041712;28;20063;-66
2021/03/12 05:16:34;;;;;;;30.75;4.80;;;;;;;7.33;70.23;100840.84;5076051;28;20040;-67
2021/03/12 05:19:03;;;;;;;28.00;5.15;;;;;;;7.26;70.49;100834.88;5058574;28;20048;-65
2021/03/12 05:21:31;;;;;;;28.25;4.07;;;;;;;7.20;70.44;100838.78;5076006;28;20051;-67
2021/03/12 05:24:01;;;;;;;30.17;5.00;;;;;;;7.28;70.67;100835.41;5059992;28;20044;-66
2021/03/12 05:26:34;;;;;;;32.95;4.75;;;;;;;7.23;70.54;100839.03;5075364;28;20044;-67
2021/03/12 05:29:02;;;;;;;30.98;6.43;;;;;;;7.27;70.51;100845.56;5058949;28;20051;-66
2021/03/12 05:31:32;;;;;;;34.60;4.97;;;;;;;7.30;70.55;100834.03;5092616;28;20075;-65
2021/03/12 05:33:59;;;;;;;30.10;4.18;;;;;;;7.15;70.49;100845.13;5073117;28;20063;-67
2021/03/12 05:36:30;;;;;;;22.83;3.65;;;;;;;7.64;69.37;100837.50;5075653;28;20394;-66
2021/03/12 05:38:57;;;;;;;30.13;4.20;;;;;;;7.46;69.56;100826.47;5074948;28;20047;-66
2021/03/12 05:41:27;;;;;;;27.05;4.57;;;;;;;7.30;70.11;100820.34;5059092;28;20052;-67
2021/03/12 05:44:02;;;;;;;22.10;4.55;;;;;;;7.05;70.84;100830.69;5059167;28;20052;-67
2021/03/12 05:46:33;;;;;;;25.88;4.43;;;;;;;7.12;71.15;100826.53;5088268;28;20120;-69
2021/03/12 05:49:03;;;;;;;27.83;4.40;;;;;;;7.29;70.40;100818.69;5059216;28;20043;-71
2021/03/12 05:51:34;;;;;;;32.08;4.55;;;;;;;7.16;70.67;100835.81;5072702;28;20048;-68
2021/03/12 05:54:10;;;;;;;34.33;4.95;;;;;;;7.01;71.19;100830.44;5076216;28;20059;-69
2021/03/12 05:56:38;;;;;;;33.78;4.80;;;;;;;6.98;71.30;100828.28;5056861;28;20044;-70
2021/03/12 05:59:11;;;;;;;26.38;4.85;;;;;;;6.91;71.78;100832.47;5075258;28;20067;-67
2021/03/12 06:01:52;;;;;;;25.48;4.47;;;;;;;6.72;72.35;100824.97;5061605;28;20052;-67
2021/03/12 06:04:19;;;;;;;25.70;4.57;;;;;;;6.82;72.17;100822.13;5074004;28;20498;-68
2021/03/12 06:06:47;;;;;;;29.23;5.53;;;;;;;6.97;71.42;100825.84;5074954;28;20513;-67
2021/03/12 06:09:17;;;;;;;35.50;6.10;;;;;;;7.01;71.18;100826.91;5074698;28;20055;-70
2021/03/12 06:11:46;;;;;;;28.75;4.68;;;;;;;7.07;70.78;100834.78;5074872;28;20047;-68
2021/03/12 06:14:16;;;;;;;24.20;4.60;;;;;;;7.04;71.11;100837.28;5092800;28;20055;-66
2021/03/12 06:16:53;;;;;;;36.47;5.07;;;;;;;6.83;71.45;100834.69;5076110;28;20056;-69
2021/03/12 06:19:55;;;;;;;25.52;3.72;;;;;;;6.85;71.65;100829.75;5061612;28;20067;-67
2021/03/12 06:22:27;;;;;;;35.78;5.00;;;;;;;7.00;71.02;100844.44;5105065;28;20055;-68
2021/03/12 06:25:10;;;;;;;22.63;4.72;;;;;;;6.82;71.88;100841.28;5058437;28;20047;-69
2021/03/12 06:28:18;;;;;;;30.95;4.53;;;;;;;6.90;71.24;100830.84;5078172;28;20048;-66
2021/03/12 06:31:33;;;;;;;39.88;5.43;;;;;;;6.90;71.93;100841.78;5029574;28;20053;-68
2021/03/12 06:34:09;;;;;;;;;;;;;;;6.91;71.73;100848.88;5029868;28;20057;-68
2021/03/12 06:37:00;;;;;;;29.15;4.50;;;;;;;6.65;72.19;100835.41;4990753;28;19948;-66
2021/03/12 06:39:37;;;;;;;34.97;5.18;;;;;;;6.73;72.19;100840.25;4975147;28;20066;-65
2021/03/12 06:42:31;;;;;;;34.25;5.35;;;;;;;6.82;72.03;100830.34;4988194;28;20047;-67
2021/03/12 06:45:02;;;;;;;36.83;5.03;;;;;;;6.87;71.52;100834.16;4973977;28;20050;-67
2021/03/12 06:47:32;;;;;;;35.72;5.28;;;;;;;6.89;71.51;100834.69;4974502;28;20046;-68
2021/03/12 06:50:15;;;;;;;26.25;4.30;;;;;;;6.97;70.78;100828.59;4958093;28;20046;-68
2021/03/12 06:52:49;;;;;;;32.13;4.50;;;;;;;7.09;70.49;100820.81;4990647;28;20046;-68
2021/03/12 06:55:42;;;;;;;29.20;4.80;;;;;;;6.94;70.86;100826.44;4967568;28;20054;-68
2021/03/12 06:58:13;;;;;;;29.05;5.07;;;;;;;6.92;71.34;100829.47;4973330;28;20053;-65
2021/03/12 07:05:28;;;;;;;33.43;4.60;;;;;;;7.08;71.01;100827.41;4989645;28;20119;-70
2021/03/12 07:08:05;;;;;;;33.25;4.82;;;;;;;7.02;71.30;100826.63;5028589;28;20145;-67
2021/03/12 07:10:55;;;;;;;29.83;5.40;;;;;;;7.01;71.33;100830.44;5038423;28;20049;-67
2021/03/12 07:13:39;;;;;;;28.65;4.50;;;;;;;7.09;71.13;100829.03;5059599;28;20051;-67
2021/03/12 07:16:15;;;;;;;29.88;5.10;;;;;;;7.29;70.50;100834.31;5058557;28;20051;-67
2021/03/12 07:18:46;;;;;;;26.67;4.65;;;;;;;7.28;70.17;100828.03;5073700;28;20056;-68
2021/03/12 07:21:20;;;;;;;31.30;4.28;;;;;;;7.43;70.11;100838.81;5073762;28;20418;-66
2021/03/12 07:23:52;;;;;;;24.85;4.25;;;;;;;7.44;70.50;100839.66;5073741;28;20048;-67
2021/03/12 07:26:29;;;;;;;29.67;4.53;;;;;;;7.53;70.60;100829.69;5073809;28;20032;-68
2021/03/12 07:29:02;;;;;;;33.33;5.65;;;;;;;7.62;69.86;100826.00;5073244;28;20044;-68
2021/03/12 07:31:49;;;;;;;21.60;4.13;;;;;;;7.57;70.07;100826.06;5059447;28;20051;-69
2021/03/12 07:34:38;;;;;;;29.33;4.47;;;;;;;7.56;70.94;100818.16;5057756;28;20056;-68
2021/03/12 07:37:20;;;;;;;27.77;5.40;;;;;;;7.69;69.92;100820.16;5089022;28;20048;-66
2021/03/12 07:39:47;;;;;;;31.02;5.38;;;;;;;7.65;70.39;100819.16;5074124;28;20048;-66
2021/03/12 07:42:21;;;;;;;33.80;5.32;;;;;;;7.79;69.98;100820.06;5070217;28;20055;-67
2021/03/12 07:44:51;;;;;;;28.95;4.75;;;;;;;7.95;69.60;100821.50;5078137;28;20486;-65
2021/03/12 07:47:40;;;;;;;31.97;5.17;;;;;;;8.18;68.83;100817.91;5079594;28;20066;-67
2021/03/12 07:50:42;;;;;;;30.58;5.20;;;;;;;8.14;69.04;100822.38;5061007;28;20108;-64
2021/03/12 07:53:16;;;;;;;26.48;4.78;;;;;;;8.06;69.07;100824.94;5015890;28;20407;-68
2021/03/12 07:55:50;;;;;;;36.90;4.90;;;;;;;8.20;68.21;100823.91;5016325;28;20057;-68
2021/03/12 07:58:52;;;;;;;30.20;5.03;;;;;;;8.35;68.14;100817.44;5032847;28;20049;-66
2021/03/12 08:06:17;;;;;;;29.42;3.80;;;;;;;8.33;68.31;100816.94;5016626;28;20052;-66
2021/03/12 08:09:30;;;;;;;36.28;5.30;;;;;;;8.34;68.41;100813.06;4976470;28;20105;-68
2021/03/12 08:12:37;;;;;;;31.08;5.47;;;;;;;8.46;68.06;100814.25;4976427;28;20065;-67
2021/03/12 08:15:25;;;;;;;28.38;4.93;;;;;;;8.69;67.52;100805.13;4993159;28;20080;-70
2021/03/12 08:18:00;;;;;;;34.63;6.00;;;;;;;8.41;68.29;100817.06;4958234;28;20050;-68
2021/03/12 08:20:43;;;;;;;37.72;6.63;;;;;;;8.57;68.20;100812.16;4976225;28;20552;-67
2021/03/12 08:23:34;;;;;;;45.55;6.65;;;;;;;8.82;67.22;100814.53;4976615;28;20054;-66
2021/03/12 08:26:50;;;;;;;29.75;5.40;;;;;;;8.87;67.37;100809.75;4991876;28;20055;-67
2021/03/12 08:29:43;;;;;;;34.53;5.78;;;;;;;8.86;67.25;100818.28;5024651;28;20058;-68
2021/03/12 08:36:51;;;;;;;24.77;4.18;;;;;;;8.71;67.87;100824.03;5012384;28;20493;-66
2021/03/12 08:39:48;;;;;;;26.67;4.20;;;;;;;9.00;67.46;100811.75;4995644;28;20506;-66
2021/03/12 08:43:03;;;;;;;30.30;4.78;;;;;;;9.17;66.67;100811.16;4995721;28;20054;-67
2021/03/12 08:46:24;;;;;;;30.77;5.82;;;;;;;9.30;65.93;100817.81;4992133;28;20166;-67
2021/03/12 08:49:08;;;;;;;26.65;4.55;;;;;;;9.05;66.97;100808.91;4974355;28;20378;-67
2021/03/12 08:51:38;;;;;;;34.55;5.43;;;;;;;8.99;66.95;100818.38;4975728;28;20094;-66
2021/03/12 08:54:28;;;;;;;27.27;4.95;;;;;;;8.82;67.88;100812.59;4958594;28;20065;-67
2021/03/12 08:57:25;;;;;;;32.08;4.35;;;;;;;9.02;68.00;100801.28;4976935;28;20158;-68
2021/03/12 09:00:17;;;;;;;30.95;4.00;;;;;;;9.16;67.26;100795.81;4975635;28;20061;-66
2021/03/12 09:07:59;;;;;;;34.55;5.13;;;;;;;9.33;66.46;100798.78;4991357;28;20058;-66
2021/03/12 09:10:41;;;;;;;27.60;4.90;;;;;;;9.46;66.10;100795.25;4964870;28;20054;-66
2021/03/12 09:13:33;;;;;;;30.17;4.05;;;;;;;9.61;65.50;100791.38;4992545;28;20444;-65
2021/03/12 09:16:10;;;;;;;26.75;4.07;;;;;;;9.40;66.43;100776.38;4976754;28;20050;-66
2021/03/12 09:20:09;;;;;;;26.65;4.47;;;;;;;9.31;66.74;100772.72;4978148;28;20054;-67
2021/03/12 09:22:55;;;;;;;30.38;4.72;;;;;;;9.71;65.32;100769.19;5008592;28;20056;-67
2021/03/12 09:25:31;;;;;;;31.83;3.72;;;;;;;9.95;64.54;100772.53;5048340;28;20056;-66
2021/03/12 09:28:14;;;;;;;23.20;4.28;;;;;;;9.99;64.43;100779.03;5055177;28;20117;-66
2021/03/12 09:30:56;;;;;;;23.65;4.10;;;;;;;9.64;64.55;100775.06;5054473;28;20047;-64
2021/03/12 09:38:37;;;;;;;31.38;5.30;;;;;;;9.99;64.17;100776.25;5086343;28;20049;-67
2021/03/12 09:41:21;;;;;;;27.85;4.85;;;;;;;9.80;64.56;100775.56;5056207;28;20045;-69
2021/03/12 09:44:00;;;;;;;26.90;4.78;;;;;;;10.08;64.18;100783.53;5072969;28;20060;-67
2021/03/12 09:46:41;;;;;;;26.10;4.65;;;;;;;9.97;64.25;100787.59;5054425;28;20052;-66
2021/03/12 09:53:32;;;;;;;32.28;4.60;;;;;;;10.04;63.64;100785.22;5072064;28;20384;-67
2021/03/12 09:56:13;;;;;;;35.80;4.93;;;;;;;10.36;63.44;100787.03;5042091;28;20056;-67
2021/03/12 09:58:48;;;;;;;20.38;3.78;;;;;;;10.56;62.66;100789.34;5022721;28;20044;-67
2021/03/12 10:01:39;;;;;;;27.30;5.07;;;;;;;10.34;61.71;100771.97;5055942;28;20044;-67
2021/03/12 10:09:04;;;;;;;26.60;3.72;;;;;;;10.37;61.09;100774.91;4958808;28;20054;-67
2021/03/12 10:11:49;;;;;;;21.13;3.47;;;;;;;10.19;61.75;100771.19;4977750;28;20594;-67
2021/03/12 10:14:43;;;;;;;35.30;5.45;;;;;;;10.60;61.05;100771.03;4990840;28;20066;-66
2021/03/12 10:17:27;;;;;;;25.77;4.50;;;;;;;10.91;60.23;100754.59;4990423;28;20150;-67
2021/03/12 10:24:25;;;;;;;20.85;3.35;;;;;;;11.07;60.31;100750.31;4991135;28;20038;-68
2021/03/12 10:26:54;;;;;;;24.80;3.85;;;;;;;11.10;59.35;100753.25;4991258;28;20119;-67
2021/03/12 10:29:27;;;;;;;28.75;4.72;;;;;;;11.06;59.97;100746.72;4990663;28;20065;-68
2021/03/12 10:32:08;;;;;;;21.73;3.67;;;;;;;10.94;58.45;100735.47;4990892;28;20186;-66
2021/03/12 10:34:46;;;;;;;22.92;4.25;;;;;;;10.99;58.30;100742.78;4991065;28;20069;-67
2021/03/12 10:37:16;;;;;;;23.15;3.83;;;;;;;11.16;58.53;100727.16;4971355;28;20149;-66
2021/03/12 10:39:49;;;;;;;23.65;3.50;;;;;;;11.25;58.20;100738.22;5009789;28;20077;-67
2021/03/12 10:42:30;;;;;;;23.63;4.28;;;;;;;11.46;57.71;100722.75;5060862;28;20063;-68
2021/03/12 10:45:05;;;;;;;24.40;4.20;;;;;;;11.30;57.90;100738.06;5073945;28;20048;-67
2021/03/12 10:47:33;;;;;;;23.48;4.13;;;;;;;11.33;57.65;100720.91;5071742;28;20044;-68
2021/03/12 10:54:30;;;;;;;23.73;3.83;;;;;;;11.55;57.03;100711.72;5092035;28;20039;-67
2021/03/12 10:57:03;;;;;;;20.85;3.00;;;;;;;11.50;56.10;100701.66;5073193;28;20040;-67
2021/03/12 10:59:34;;;;;;;18.73;3.40;;;;;;;11.73;56.51;100710.69;5090936;28;20117;-67
2021/03/12 11:02:12;;;;;;;18.60;3.55;;;;;;;11.74;55.85;100701.25;5074827;28;20063;-68
2021/03/12 11:04:43;;;;;;;16.88;3.15;;;;;;;11.88;55.36;100696.44;5072390;28;20495;-68
2021/03/12 11:11:41;;;;;;;17.00;3.33;;;;;;;11.81;55.44;100679.53;5074070;28;20394;-68
2021/03/12 11:14:10;;;;;;;20.75;3.45;;;;;;;12.16;55.28;100679.25;5089865;28;20505;-72
2021/03/12 11:16:47;;;;;;;21.15;3.38;;;;;;;11.96;54.89;100681.84;5092929;28;20053;-66
2021/03/12 11:19:14;;;;;;;17.80;4.00;;;;;;;12.01;55.00;100687.19;5096077;28;20052;-67
2021/03/12 11:26:43;;;;;;;18.77;3.28;;;;;;;12.33;54.22;100670.13;5095987;28;20047;-68
2021/03/12 11:29:17;;;;;;;20.42;3.60;;;;;;;12.24;54.05;100674.84;5097163;28;20375;-71
2021/03/12 11:31:49;;;;;;;18.33;3.33;;;;;;;12.15;54.55;100671.28;5078182;28;20052;-68
2021/03/12 11:34:16;;;;;;;20.60;3.88;;;;;;;12.20;54.67;100673.88;5093473;28;20066;-64
2021/03/12 11:41:38;;;;;;;13.20;3.35;;;;;;;12.46;54.53;100653.38;5095187;28;20406;-66
2021/03/12 11:44:05;;;;;;;15.75;3.38;;;;;;;12.63;53.41;100651.72;5095514;28;20056;-71
2021/03/12 11:46:32;;;;;;;17.35;3.70;;;;;;;12.56;53.79;100638.41;5095147;28;20399;-69
2021/03/12 11:49:04;;;;;;;12.93;3.08;;;;;;;12.25;53.28;100648.88;5077983;28;20048;-69
2021/03/12 11:51:31;;;;;;;17.88;4.18;;;;;;;12.20;53.96;100640.75;5093040;28;20060;-71
2021/03/12 11:58:35;;;;;;;18.70;3.22;;;;;;;12.65;53.14;100628.16;5094442;28;20056;-68
2021/03/12 12:01:02;;;;;;;14.82;2.95;;;;;;;12.65;53.21;100617.09;5092428;28;20044;-71
2021/03/12 12:03:29;;;;;;;17.42;2.95;;;;;;;12.43;53.04;100620.06;5077553;28;20521;-67
2021/03/12 12:05:59;;;;;;;15.50;3.38;;;;;;;12.87;52.65;100602.22;5076846;28;20371;-65
2021/03/12 12:08:26;;;;;;;14.95;3.42;;;;;;;12.95;50.71;100618.81;5076011;28;20048;-67
2021/03/12 12:10:59;;;;;;;18.92;2.75;;;;;;;12.81;50.66;100604.38;5092763;28;20044;-72
2021/03/12 12:13:26;;;;;;;25.88;3.35;;;;;;;12.80;51.10;100616.56;5094843;28;20067;-71
2021/03/12 12:16:00;;;;;;;14.13;2.97;;;;;;;12.49;50.55;100616.00;5077051;28;20151;-75
2021/03/12 12:18:27;;;;;;;14.40;2.80;;;;;;;12.44;50.14;100627.22;5093832;28;20051;-72
2021/03/12 12:20:59;;;;;;;16.83;2.67;;;;;;;12.04;51.21;100623.88;5091814;28;20048;-73
2021/03/12 12:23:29;;;;;;;11.10;2.65;;;;;;;12.26;52.09;100625.63;5094637;28;20048;-69
2021/03/12 12:25:57;;;;;;;18.95;2.88;;;;;;;12.45;52.08;100628.84;5093970;28;20406;-72
2021/03/12 12:28:25;;;;;;;29.40;3.58;;;;;;;12.65;50.19;100625.41;5094067;28;20051;-70
2021/03/12 12:30:52;;;;;;;9.93;2.40;;;;;;;12.76;50.45;100612.81;5075874;28;20044;-69
2021/03/12 12:33:20;;;;;;;17.15;3.10;;;;;;;12.75;49.73;100596.56;5042500;28;20208;-69
2021/03/12 12:35:54;;;;;;;17.20;2.95;;;;;;;13.10;50.05;100596.16;5094025;28;20056;-68
2021/03/12 12:38:27;;;;;;;12.35;2.55;;;;;;;13.11;48.20;100592.22;5075241;28;20055;-67
2021/03/12 12:40:54;;;;;;;16.05;2.47;;;;;;;13.01;48.85;100581.50;5076068;28;20052;-70
2021/03/12 12:43:24;;;;;;;16.67;2.90;;;;;;;13.50;48.39;100568.88;5094937;28;20048;-70
2021/03/12 12:45:54;;;;;;;8.02;2.05;;;;;;;13.47;47.82;100562.09;5094461;28;20048;-68
2021/03/12 12:48:24;;;;;;;14.98;2.78;;;;;;;13.32;48.29;100554.34;5084796;28;20055;-71
2021/03/12 12:50:57;;;;;;;11.30;2.42;;;;;;;13.38;48.17;100554.97;5077374;28;20059;-70
2021/03/12 12:53:25;;;;;;;16.42;3.10;;;;;;;13.37;47.09;100543.09;5093507;28;20406;-69
2021/03/12 12:56:00;;;;;;;12.02;2.38;;;;;;;13.64;46.15;100521.56;5092222;28;20052;-69
2021/03/12 12:58:28;;;;;;;14.55;2.13;;;;;;;13.64;46.04;100530.69;5076059;28;20056;-69
2021/03/12 13:01:01;;;;;;;11.10;2.25;;;;;;;13.65;45.33;100520.44;5059984;28;20051;-70
2021/03/12 13:03:29;;;;;;;13.38;2.50;;;;;;;13.15;45.90;100526.81;5075779;28;20119;-70
2021/03/12 13:06:17;;;;;;;16.83;2.95;;;;;;;12.93;46.28;100524.31;5073668;28;20044;-67
2021/03/12 13:08:47;;;;;;;13.63;2.20;;;;;;;13.26;46.06;100521.69;5076745;28;20044;-73
2021/03/12 13:11:17;;;;;;;13.52;2.38;;;;;;;13.51;46.33;100520.72;5075300;28;20624;-71
2021/03/12 13:13:45;;;;;;;11.07;2.30;;;;;;;13.48;46.72;100522.19;5093612;28;20036;-68
2021/03/12 13:16:16;;;;;;;10.60;1.83;;;;;;;13.39;47.88;100524.19;5074798;28;20052;-68
2021/03/12 13:18:45;;;;;;;14.35;2.75;;;;;;;13.24;48.88;100516.50;5086513;28;20043;-69
2021/03/12 13:21:12;;;;;;;16.27;2.42;;;;;;;13.54;48.48;100511.72;5093289;28;20402;-69
2021/03/12 13:23:40;;;;;;;17.27;2.70;;;;;;;13.20;48.62;100511.97;5090615;28;20059;-70
2021/03/12 13:30:45;;;;;;;12.48;2.50;;;;;;;13.10;49.49;100484.72;5093040;28;20059;-69
2021/03/12 13:33:16;;;;;;;15.95;2.53;;;;;;;13.10;49.13;100485.53;5093071;28;20492;-71